sensor_id;sensor_type;location;lat;lon;timestamp;noise_LAeq;noise_LA_min;noise_LA_max;noise_LA01;noise_LA95
17594;Laerm;8916;47.086;15.920;2023-01-25T00:02:24;49.29;48.08;50.27;;
17594;Laerm;8916;47.086;15.920;2023-01-25T00:04:55;49.31;48.13;50.56;;
17594;Laerm;8916;47.086;15.920;2023-01-25T00:07:24;49.32;48.28;50.37;;
17594;Laerm;8916;47.086;15.920;2023-01-25T00:09:53;49.32;48.28;50.55;;
17594;Laerm;8916;47.086;15.920;2023-01-25T00:12:22;49.31;48.10;50.37;;
17594;Laerm;8916;47.086;15.920;2023-01-25T00:14:51;49.31;48.23;50.38;;
17594;Laerm;8916;47.086;15.920;2023-01-25T00:17:20;49.32;48.28;50.68;;
17594;Laerm;8916;47.086;15.920;2023-01-25T00:19:50;49.32;48.05;50.75;;
17594;Laerm;8916;47.086;15.920;2023-01-25T00:22:20;49.34;48.16;50.51;;
17594;Laerm;8916;47.086;15.920;2023-01-25T00:24:49;49.33;48.20;50.42;;
17594;Laerm;8916;47.086;15.920;2023-01-25T00:27:18;49.34;48.34;50.44;;
17594;Laerm;8916;47.086;15.920;2023-01-25T00:29:48;49.33;48.25;50.34;;
17594;Laerm;8916;47.086;15.920;2023-01-25T00:32:36;49.33;48.25;50.45;;
17594;Laerm;8916;47.086;15.920;2023-01-25T00:35:10;49.32;48.25;50.57;;
17594;Laerm;8916;47.086;15.920;2023-01-25T00:37:45;49.32;48.26;50.33;;
17594;Laerm;8916;47.086;15.920;2023-01-25T00:40:17;49.32;48.26;50.53;;
17594;Laerm;8916;47.086;15.920;2023-01-25T00:42:46;49.33;48.23;50.45;;
17594;Laerm;8916;47.086;15.920;2023-01-25T00:45:16;49.32;48.26;50.36;;
17594;Laerm;8916;47.086;15.920;2023-01-25T00:47:45;49.31;48.10;50.70;;
17594;Laerm;8916;47.086;15.920;2023-01-25T00:50:15;49.33;48.15;50.57;;
17594;Laerm;8916;47.086;15.920;2023-01-25T00:52:46;49.32;48.18;50.38;;
17594;Laerm;8916;47.086;15.920;2023-01-25T00:55:15;49.32;48.12;50.49;;
17594;Laerm;8916;47.086;15.920;2023-01-25T00:57:47;49.33;48.12;50.38;;
17594;Laerm;8916;47.086;15.920;2023-01-25T01:00:17;49.33;48.31;50.37;;
17594;Laerm;8916;47.086;15.920;2023-01-25T01:02:47;49.34;48.08;50.43;;
17594;Laerm;8916;47.086;15.920;2023-01-25T01:05:16;49.35;48.23;50.44;;
17594;Laerm;8916;47.086;15.920;2023-01-25T01:07:49;49.36;48.34;50.32;;
17594;Laerm;8916;47.086;15.920;2023-01-25T01:10:18;49.36;48.05;50.47;;
17594;Laerm;8916;47.086;15.920;2023-01-25T01:12:50;49.37;48.34;50.56;;
17594;Laerm;8916;47.086;15.920;2023-01-25T01:15:19;49.37;48.26;50.44;;
17594;Laerm;8916;47.086;15.920;2023-01-25T01:17:49;49.38;48.12;50.55;;
17594;Laerm;8916;47.086;15.920;2023-01-25T01:20:18;49.39;48.45;50.52;;
17594;Laerm;8916;47.086;15.920;2023-01-25T01:22:50;49.38;48.40;50.56;;
17594;Laerm;8916;47.086;15.920;2023-01-25T01:25:21;49.38;48.31;50.54;;
17594;Laerm;8916;47.086;15.920;2023-01-25T01:27:51;49.38;48.32;50.36;;
17594;Laerm;8916;47.086;15.920;2023-01-25T01:30:20;49.38;48.28;50.37;;
17594;Laerm;8916;47.086;15.920;2023-01-25T01:32:50;49.38;48.42;50.43;;
17594;Laerm;8916;47.086;15.920;2023-01-25T01:35:19;49.38;48.31;50.44;;
17594;Laerm;8916;47.086;15.920;2023-01-25T01:37:50;49.40;48.37;50.74;;
17594;Laerm;8916;47.086;15.920;2023-01-25T01:40:19;49.40;48.25;50.42;;
17594;Laerm;8916;47.086;15.920;2023-01-25T01:43:00;49.40;48.21;50.56;;
17594;Laerm;8916;47.086;15.920;2023-01-25T01:45:49;49.40;48.26;50.84;;
17594;Laerm;8916;47.086;15.920;2023-01-25T01:48:33;49.40;48.28;50.62;;
17594;Laerm;8916;47.086;15.920;2023-01-25T01:51:13;49.41;48.40;50.44;;
17594;Laerm;8916;47.086;15.920;2023-01-25T01:53:51;49.41;48.32;50.53;;
17594;Laerm;8916;47.086;15.920;2023-01-25T01:56:29;49.41;48.25;50.64;;
17594;Laerm;8916;47.086;15.920;2023-01-25T01:59:03;49.41;48.21;50.47;;
17594;Laerm;8916;47.086;15.920;2023-01-25T02:01:33;49.42;48.39;50.63;;
17594;Laerm;8916;47.086;15.920;2023-01-25T02:04:04;49.43;48.37;50.54;;
17594;Laerm;8916;47.086;15.920;2023-01-25T02:06:41;49.42;48.20;50.60;;
17594;Laerm;8916;47.086;15.920;2023-01-25T02:09:18;49.43;48.34;50.73;;
17594;Laerm;8916;47.086;15.920;2023-01-25T02:11:50;49.43;47.91;50.57;;
17594;Laerm;8916;47.086;15.920;2023-01-25T02:14:20;49.43;48.31;50.51;;
17594;Laerm;8916;47.086;15.920;2023-01-25T02:16:49;49.43;48.26;50.56;;
17594;Laerm;8916;47.086;15.920;2023-01-25T02:19:31;49.43;48.34;50.53;;
17594;Laerm;8916;47.086;15.920;2023-01-25T02:22:03;49.42;48.34;50.42;;
17594;Laerm;8916;47.086;15.920;2023-01-25T02:24:42;49.44;48.43;50.50;;
17594;Laerm;8916;47.086;15.920;2023-01-25T02:27:16;49.44;48.25;50.54;;
17594;Laerm;8916;47.086;15.920;2023-01-25T02:29:46;49.43;48.37;50.50;;
17594;Laerm;8916;47.086;15.920;2023-01-25T02:32:16;49.43;48.39;50.66;;
17594;Laerm;8916;47.086;15.920;2023-01-25T02:34:45;49.43;48.29;50.53;;
17594;Laerm;8916;47.086;15.920;2023-01-25T02:37:15;49.42;48.39;50.59;;
17594;Laerm;8916;47.086;15.920;2023-01-25T02:39:44;49.43;48.42;50.56;;
17594;Laerm;8916;47.086;15.920;2023-01-25T02:42:13;49.43;48.32;50.67;;
17594;Laerm;8916;47.086;15.920;2023-01-25T02:44:45;49.42;48.25;50.49;;
17594;Laerm;8916;47.086;15.920;2023-01-25T02:47:14;49.44;48.34;50.78;;
17594;Laerm;8916;47.086;15.920;2023-01-25T02:49:44;49.44;48.43;50.52;;
17594;Laerm;8916;47.086;15.920;2023-01-25T02:52:13;49.44;48.49;50.70;;
17594;Laerm;8916;47.086;15.920;2023-01-25T02:54:44;49.44;48.34;50.41;;
17594;Laerm;8916;47.086;15.920;2023-01-25T02:57:14;49.44;48.32;50.58;;
17594;Laerm;8916;47.086;15.920;2023-01-25T02:59:45;49.44;48.36;50.54;;
17594;Laerm;8916;47.086;15.920;2023-01-25T03:02:17;49.44;48.15;50.53;;
17594;Laerm;8916;47.086;15.920;2023-01-25T03:04:46;49.44;48.40;50.53;;
17594;Laerm;8916;47.086;15.920;2023-01-25T03:07:16;49.44;48.21;50.65;;
17594;Laerm;8916;47.086;15.920;2023-01-25T03:09:45;49.44;48.36;50.52;;
17594;Laerm;8916;47.086;15.920;2023-01-25T03:12:14;49.44;48.46;50.54;;
17594;Laerm;8916;47.086;15.920;2023-01-25T03:14:46;49.44;48.25;50.43;;
17594;Laerm;8916;47.086;15.920;2023-01-25T03:17:18;49.44;48.37;50.64;;
17594;Laerm;8916;47.086;15.920;2023-01-25T03:19:47;49.44;48.36;50.46;;
17594;Laerm;8916;47.086;15.920;2023-01-25T03:22:16;49.43;48.37;50.55;;
17594;Laerm;8916;47.086;15.920;2023-01-25T03:24:45;49.43;48.03;50.44;;
17594;Laerm;8916;47.086;15.920;2023-01-25T03:27:15;49.43;48.42;50.48;;
17594;Laerm;8916;47.086;15.920;2023-01-25T03:29:57;49.43;48.45;50.51;;
17594;Laerm;8916;47.086;15.920;2023-01-25T03:32:30;49.43;48.28;50.48;;
17594;Laerm;8916;47.086;15.920;2023-01-25T03:35:05;49.45;48.28;50.74;;
17594;Laerm;8916;47.086;15.920;2023-01-25T03:37:35;49.45;48.26;50.57;;
17594;Laerm;8916;47.086;15.920;2023-01-25T03:40:06;49.44;48.29;50.55;;
17594;Laerm;8916;47.086;15.920;2023-01-25T03:42:37;49.45;48.42;50.43;;
17594;Laerm;8916;47.086;15.920;2023-01-25T03:45:11;49.44;48.29;50.58;;
17594;Laerm;8916;47.086;15.920;2023-01-25T03:47:41;49.44;48.26;50.77;;
17594;Laerm;8916;47.086;15.920;2023-01-25T03:50:10;49.44;48.16;50.59;;
17594;Laerm;8916;47.086;15.920;2023-01-25T03:52:40;49.44;48.36;50.56;;
17594;Laerm;8916;47.086;15.920;2023-01-25T03:55:12;49.45;48.28;50.47;;
17594;Laerm;8916;47.086;15.920;2023-01-25T03:57:42;49.45;48.40;50.57;;
17594;Laerm;8916;47.086;15.920;2023-01-25T04:00:14;49.44;48.25;50.54;;
17594;Laerm;8916;47.086;15.920;2023-01-25T04:02:47;49.44;48.40;50.53;;
17594;Laerm;8916;47.086;15.920;2023-01-25T04:05:18;49.44;48.26;50.52;;
17594;Laerm;8916;47.086;15.920;2023-01-25T04:07:48;49.44;48.42;50.56;;
17594;Laerm;8916;47.086;15.920;2023-01-25T04:10:23;49.45;48.48;50.68;;
17594;Laerm;8916;47.086;15.920;2023-01-25T04:12:52;49.46;48.16;50.63;;
17594;Laerm;8916;47.086;15.920;2023-01-25T04:15:22;49.45;48.29;50.48;;
17594;Laerm;8916;47.086;15.920;2023-01-25T04:17:52;49.45;48.37;50.67;;
17594;Laerm;8916;47.086;15.920;2023-01-25T04:20:24;49.45;48.34;50.68;;
17594;Laerm;8916;47.086;15.920;2023-01-25T04:22:54;49.46;48.41;50.52;;
17594;Laerm;8916;47.086;15.920;2023-01-25T04:25:29;49.45;48.49;50.42;;
17594;Laerm;8916;47.086;15.920;2023-01-25T04:27:58;49.45;48.46;50.72;;
17594;Laerm;8916;47.086;15.920;2023-01-25T04:30:29;49.44;48.40;50.64;;
17594;Laerm;8916;47.086;15.920;2023-01-25T04:33:03;49.44;48.42;50.68;;
17594;Laerm;8916;47.086;15.920;2023-01-25T04:35:34;49.43;48.18;50.44;;
17594;Laerm;8916;47.086;15.920;2023-01-25T04:38:05;49.43;48.34;50.77;;
17594;Laerm;8916;47.086;15.920;2023-01-25T04:40:38;49.43;48.18;50.40;;
17594;Laerm;8916;47.086;15.920;2023-01-25T04:43:08;49.42;48.37;50.67;;
17594;Laerm;8916;47.086;15.920;2023-01-25T04:45:40;49.42;48.43;50.41;;
17594;Laerm;8916;47.086;15.920;2023-01-25T04:48:16;49.43;48.26;50.50;;
17594;Laerm;8916;47.086;15.920;2023-01-25T04:50:54;49.43;48.37;50.74;;
17594;Laerm;8916;47.086;15.920;2023-01-25T04:53:26;49.43;48.37;50.50;;
17594;Laerm;8916;47.086;15.920;2023-01-25T04:55:59;49.44;48.08;50.48;;
17594;Laerm;8916;47.086;15.920;2023-01-25T04:58:33;49.45;48.42;50.76;;
17594;Laerm;8916;47.086;15.920;2023-01-25T05:01:04;49.44;48.51;50.53;;
17594;Laerm;8916;47.086;15.920;2023-01-25T05:03:34;49.44;48.13;50.66;;
17594;Laerm;8916;47.086;15.920;2023-01-25T05:06:06;49.44;48.40;50.58;;
17594;Laerm;8916;47.086;15.920;2023-01-25T05:08:35;49.45;48.13;50.58;;
17594;Laerm;8916;47.086;15.920;2023-01-25T05:11:04;49.45;48.40;50.59;;
17594;Laerm;8916;47.086;15.920;2023-01-25T05:14:09;49.45;48.26;50.92;;
17594;Laerm;8916;47.086;15.920;2023-01-25T05:16:40;49.45;48.39;50.72;;
17594;Laerm;8916;47.086;15.920;2023-01-25T05:19:11;49.44;48.42;50.49;;
17594;Laerm;8916;47.086;15.920;2023-01-25T05:21:54;49.44;48.40;50.56;;
17594;Laerm;8916;47.086;15.920;2023-01-25T05:24:34;49.45;48.21;50.50;;
17594;Laerm;8916;47.086;15.920;2023-01-25T05:27:07;49.44;48.34;50.68;;
17594;Laerm;8916;47.086;15.920;2023-01-25T05:29:55;49.45;48.20;50.48;;
17594;Laerm;8916;47.086;15.920;2023-01-25T05:32:39;49.45;48.45;50.68;;
17594;Laerm;8916;47.086;15.920;2023-01-25T05:35:08;49.45;48.37;50.61;;
17594;Laerm;8916;47.086;15.920;2023-01-25T05:37:38;49.45;48.28;50.62;;
17594;Laerm;8916;47.086;15.920;2023-01-25T05:40:15;49.44;48.43;50.47;;
17594;Laerm;8916;47.086;15.920;2023-01-25T05:42:44;49.44;48.36;50.59;;
17594;Laerm;8916;47.086;15.920;2023-01-25T05:45:17;49.43;48.26;50.64;;
17594;Laerm;8916;47.086;15.920;2023-01-25T05:47:52;49.44;48.39;50.49;;
17594;Laerm;8916;47.086;15.920;2023-01-25T05:50:23;49.43;48.16;50.57;;
17594;Laerm;8916;47.086;15.920;2023-01-25T05:53:09;49.44;48.42;50.71;;
17594;Laerm;8916;47.086;15.920;2023-01-25T05:55:39;49.44;48.43;50.70;;
17594;Laerm;8916;47.086;15.920;2023-01-25T05:58:13;49.45;48.21;50.42;;
17594;Laerm;8916;47.086;15.920;2023-01-25T06:00:42;49.44;48.23;50.88;;
17594;Laerm;8916;47.086;15.920;2023-01-25T06:03:22;49.44;48.40;50.51;;
17594;Laerm;8916;47.086;15.920;2023-01-25T06:05:54;49.44;48.25;50.38;;
17594;Laerm;8916;47.086;15.920;2023-01-25T06:08:24;49.45;48.40;50.46;;
17594;Laerm;8916;47.086;15.920;2023-01-25T06:10:54;49.45;48.40;50.63;;
17594;Laerm;8916;47.086;15.920;2023-01-25T06:13:23;49.45;48.37;50.57;;
17594;Laerm;8916;47.086;15.920;2023-01-25T06:15:54;49.45;48.39;50.49;;
17594;Laerm;8916;47.086;15.920;2023-01-25T06:18:46;49.45;48.34;50.49;;
17594;Laerm;8916;47.086;15.920;2023-01-25T06:21:35;49.46;48.32;50.61;;
17594;Laerm;8916;47.086;15.920;2023-01-25T06:24:05;49.46;48.40;50.50;;
17594;Laerm;8916;47.086;15.920;2023-01-25T06:26:34;49.46;48.37;50.59;;
17594;Laerm;8916;47.086;15.920;2023-01-25T06:29:04;49.46;48.43;50.77;;
17594;Laerm;8916;47.086;15.920;2023-01-25T06:31:34;49.46;48.43;50.81;;
17594;Laerm;8916;47.086;15.920;2023-01-25T06:34:04;49.46;48.49;50.45;;
17594;Laerm;8916;47.086;15.920;2023-01-25T06:36:35;49.46;48.29;50.55;;
17594;Laerm;8916;47.086;15.920;2023-01-25T06:39:04;49.45;48.13;50.77;;
17594;Laerm;8916;47.086;15.920;2023-01-25T06:41:34;49.45;48.37;50.56;;
17594;Laerm;8916;47.086;15.920;2023-01-25T06:44:03;49.45;48.36;50.64;;
17594;Laerm;8916;47.086;15.920;2023-01-25T06:46:32;49.45;48.28;50.73;;
17594;Laerm;8916;47.086;15.920;2023-01-25T06:49:01;49.44;48.37;50.51;;
17594;Laerm;8916;47.086;15.920;2023-01-25T06:51:32;49.46;48.48;50.45;;
17594;Laerm;8916;47.086;15.920;2023-01-25T06:54:02;49.44;48.34;50.60;;
17594;Laerm;8916;47.086;15.920;2023-01-25T06:56:31;49.44;48.39;50.57;;
17594;Laerm;8916;47.086;15.920;2023-01-25T06:59:00;49.45;48.34;50.64;;
17594;Laerm;8916;47.086;15.920;2023-01-25T07:01:30;49.44;48.07;50.53;;
17594;Laerm;8916;47.086;15.920;2023-01-25T07:04:00;49.43;48.10;50.59;;
17594;Laerm;8916;47.086;15.920;2023-01-25T07:06:32;49.41;48.25;50.54;;
17594;Laerm;8916;47.086;15.920;2023-01-25T07:09:03;49.40;48.29;50.63;;
17594;Laerm;8916;47.086;15.920;2023-01-25T07:11:33;49.39;48.20;50.44;;
17594;Laerm;8916;47.086;15.920;2023-01-25T07:14:02;49.39;48.20;50.44;;
17594;Laerm;8916;47.086;15.920;2023-01-25T07:16:32;49.39;48.39;50.40;;
17594;Laerm;8916;47.086;15.920;2023-01-25T07:19:06;49.38;48.32;50.41;;
17594;Laerm;8916;47.086;15.920;2023-01-25T07:21:36;49.37;48.28;50.40;;
17594;Laerm;8916;47.086;15.920;2023-01-25T07:24:06;49.36;48.25;50.66;;
17594;Laerm;8916;47.086;15.920;2023-01-25T07:26:35;49.35;48.10;50.43;;
17594;Laerm;8916;47.086;15.920;2023-01-25T07:29:04;49.36;48.26;50.62;;
17594;Laerm;8916;47.086;15.920;2023-01-25T07:31:34;49.36;48.16;50.41;;
17594;Laerm;8916;47.086;15.920;2023-01-25T07:34:03;49.36;48.29;50.33;;
17594;Laerm;8916;47.086;15.920;2023-01-25T07:36:32;49.35;48.16;50.37;;
17594;Laerm;8916;47.086;15.920;2023-01-25T07:39:03;49.36;48.18;50.36;;
17594;Laerm;8916;47.086;15.920;2023-01-25T07:41:32;49.36;48.26;50.39;;
17594;Laerm;8916;47.086;15.920;2023-01-25T07:44:01;49.34;48.37;50.39;;
17594;Laerm;8916;47.086;15.920;2023-01-25T07:46:52;49.34;48.21;50.39;;
17594;Laerm;8916;47.086;15.920;2023-01-25T07:49:21;49.33;48.29;50.48;;
17594;Laerm;8916;47.086;15.920;2023-01-25T07:51:50;49.32;48.02;50.45;;
17594;Laerm;8916;47.086;15.920;2023-01-25T07:54:21;49.34;48.25;50.54;;
17594;Laerm;8916;47.086;15.920;2023-01-25T07:56:50;49.32;48.26;50.44;;
17594;Laerm;8916;47.086;15.920;2023-01-25T07:59:19;49.32;48.34;50.30;;
17594;Laerm;8916;47.086;15.920;2023-01-25T08:01:48;49.30;48.07;50.57;;
17594;Laerm;8916;47.086;15.920;2023-01-25T08:04:17;49.30;48.18;50.48;;
17594;Laerm;8916;47.086;15.920;2023-01-25T08:06:46;49.30;48.18;50.44;;
17594;Laerm;8916;47.086;15.920;2023-01-25T08:09:17;49.27;48.12;50.45;;
17594;Laerm;8916;47.086;15.920;2023-01-25T08:11:48;49.26;48.21;50.56;;
17594;Laerm;8916;47.086;15.920;2023-01-25T08:14:17;49.24;48.13;50.16;;
17594;Laerm;8916;47.086;15.920;2023-01-25T08:16:46;49.20;48.07;50.36;;
17594;Laerm;8916;47.086;15.920;2023-01-25T08:19:15;49.17;48.15;50.31;;
17594;Laerm;8916;47.086;15.920;2023-01-25T08:21:46;49.16;48.00;50.17;;
17594;Laerm;8916;47.086;15.920;2023-01-25T08:24:16;49.19;48.16;50.38;;
17594;Laerm;8916;47.086;15.920;2023-01-25T08:26:48;49.21;48.04;50.24;;
17594;Laerm;8916;47.086;15.920;2023-01-25T08:29:18;49.23;48.15;50.26;;
17594;Laerm;8916;47.086;15.920;2023-01-25T08:31:47;49.24;48.13;50.30;;
17594;Laerm;8916;47.086;15.920;2023-01-25T08:34:16;49.26;48.18;50.44;;
17594;Laerm;8916;47.086;15.920;2023-01-25T08:36:45;49.28;48.23;50.53;;
17594;Laerm;8916;47.086;15.920;2023-01-25T08:39:14;49.28;48.13;50.49;;
17594;Laerm;8916;47.086;15.920;2023-01-25T08:41:44;49.30;48.25;50.33;;
17594;Laerm;8916;47.086;15.920;2023-01-25T08:44:15;49.29;48.21;50.54;;
17594;Laerm;8916;47.086;15.920;2023-01-25T08:46:49;49.29;48.28;50.44;;
17594;Laerm;8916;47.086;15.920;2023-01-25T08:49:18;49.30;48.21;50.56;;
17594;Laerm;8916;47.086;15.920;2023-01-25T08:51:48;49.30;48.25;50.33;;
17594;Laerm;8916;47.086;15.920;2023-01-25T08:54:17;49.29;48.13;50.34;;
17594;Laerm;8916;47.086;15.920;2023-01-25T08:56:46;49.29;47.91;50.41;;
17594;Laerm;8916;47.086;15.920;2023-01-25T08:59:17;49.29;48.20;50.24;;
17594;Laerm;8916;47.086;15.920;2023-01-25T09:01:46;49.28;48.26;50.35;;
17594;Laerm;8916;47.086;15.920;2023-01-25T09:04:15;49.29;48.08;50.47;;
17594;Laerm;8916;47.086;15.920;2023-01-25T09:06:44;49.28;48.16;50.56;;
17594;Laerm;8916;47.086;15.920;2023-01-25T09:09:13;49.28;48.26;50.44;;
17594;Laerm;8916;47.086;15.920;2023-01-25T09:11:42;49.28;47.98;50.56;;
17594;Laerm;8916;47.086;15.920;2023-01-25T09:14:11;49.29;48.25;50.38;;
17594;Laerm;8916;47.086;15.920;2023-01-25T09:16:42;49.28;48.21;50.52;;
17594;Laerm;8916;47.086;15.920;2023-01-25T09:19:11;49.28;48.24;50.27;;
17594;Laerm;8916;47.086;15.920;2023-01-25T09:21:41;49.27;47.88;50.63;;
17594;Laerm;8916;47.086;15.920;2023-01-25T09:24:10;49.26;48.13;50.48;;
17594;Laerm;8916;47.086;15.920;2023-01-25T09:26:41;49.27;48.18;50.37;;
17594;Laerm;8916;47.086;15.920;2023-01-25T09:29:22;49.27;48.15;50.44;;
17594;Laerm;8916;47.086;15.920;2023-01-25T09:31:53;49.27;48.03;50.31;;
17594;Laerm;8916;47.086;15.920;2023-01-25T09:34:31;49.28;48.23;50.44;;
17594;Laerm;8916;47.086;15.920;2023-01-25T09:37:00;49.28;48.26;50.61;;
17594;Laerm;8916;47.086;15.920;2023-01-25T09:39:29;49.26;47.95;50.38;;
17594;Laerm;8916;47.086;15.920;2023-01-25T09:42:38;49.27;48.07;50.46;;
17594;Laerm;8916;47.086;15.920;2023-01-25T09:45:31;49.28;48.12;50.42;;
17594;Laerm;8916;47.086;15.920;2023-01-25T09:48:13;49.27;48.03;50.43;;
17594;Laerm;8916;47.086;15.920;2023-01-25T09:51:05;49.27;48.15;50.41;;
17594;Laerm;8916;47.086;15.920;2023-01-25T09:53:38;49.26;48.20;50.22;;
17594;Laerm;8916;47.086;15.920;2023-01-25T09:56:14;49.27;48.20;50.34;;
17594;Laerm;8916;47.086;15.920;2023-01-25T09:58:47;49.26;48.18;50.78;;
17594;Laerm;8916;47.086;15.920;2023-01-25T10:01:28;49.26;48.16;50.36;;
17594;Laerm;8916;47.086;15.920;2023-01-25T10:04:10;49.26;48.07;50.31;;
17594;Laerm;8916;47.086;15.920;2023-01-25T10:06:42;49.27;48.21;50.45;;
17594;Laerm;8916;47.086;15.920;2023-01-25T10:09:39;49.27;48.05;50.32;;
17594;Laerm;8916;47.086;15.920;2023-01-25T10:12:17;49.27;47.90;50.49;;
17594;Laerm;8916;47.086;15.920;2023-01-25T10:14:47;49.27;48.18;50.40;;
17594;Laerm;8916;47.086;15.920;2023-01-25T10:17:28;49.28;47.98;50.56;;
17594;Laerm;8916;47.086;15.920;2023-01-25T10:20:19;49.28;48.28;50.48;;
17594;Laerm;8916;47.086;15.920;2023-01-25T10:23:08;49.28;48.13;50.73;;
17594;Laerm;8916;47.086;15.920;2023-01-25T10:25:44;49.27;48.03;50.33;;
17594;Laerm;8916;47.086;15.920;2023-01-25T10:28:30;49.28;48.26;50.30;;
17594;Laerm;8916;47.086;15.920;2023-01-25T10:31:05;49.28;48.21;50.42;;
17594;Laerm;8916;47.086;15.920;2023-01-25T10:33:39;49.28;48.02;50.35;;
17594;Laerm;8916;47.086;15.920;2023-01-25T10:36:13;49.27;48.02;50.36;;
17594;Laerm;8916;47.086;15.920;2023-01-25T10:38:46;49.27;48.15;50.59;;
17594;Laerm;8916;47.086;15.920;2023-01-25T10:41:20;49.29;48.16;50.41;;
17594;Laerm;8916;47.086;15.920;2023-01-25T10:43:53;49.28;48.16;50.50;;
17594;Laerm;8916;47.086;15.920;2023-01-25T10:46:56;49.27;48.13;50.36;;
17594;Laerm;8916;47.086;15.920;2023-01-25T10:49:39;49.26;48.12;50.30;;
17594;Laerm;8916;47.086;15.920;2023-01-25T10:52:16;49.28;48.16;50.42;;
17594;Laerm;8916;47.086;15.920;2023-01-25T10:54:47;49.26;48.20;50.37;;
17594;Laerm;8916;47.086;15.920;2023-01-25T10:57:19;49.26;48.16;50.33;;
17594;Laerm;8916;47.086;15.920;2023-01-25T10:59:51;49.26;48.12;50.38;;
17594;Laerm;8916;47.086;15.920;2023-01-25T11:02:39;49.26;48.29;50.29;;
17594;Laerm;8916;47.086;15.920;2023-01-25T11:05:31;49.26;48.23;50.42;;
17594;Laerm;8916;47.086;15.920;2023-01-25T11:08:23;49.26;48.20;50.81;;
17594;Laerm;8916;47.086;15.920;2023-01-25T11:10:54;49.26;48.12;50.39;;
17594;Laerm;8916;47.086;15.920;2023-01-25T11:13:25;49.26;48.18;50.46;;
17594;Laerm;8916;47.086;15.920;2023-01-25T11:16:15;49.26;48.26;50.46;;
17594;Laerm;8916;47.086;15.920;2023-01-25T11:18:53;49.26;48.26;50.36;;
17594;Laerm;8916;47.086;15.920;2023-01-25T11:21:24;49.25;48.18;50.41;;
17594;Laerm;8916;47.086;15.920;2023-01-25T11:24:01;49.24;48.07;50.38;;
17594;Laerm;8916;47.086;15.920;2023-01-25T11:26:34;49.25;48.21;50.39;;
17594;Laerm;8916;47.086;15.920;2023-01-25T11:29:14;49.25;47.88;50.28;;
17594;Laerm;8916;47.086;15.920;2023-01-25T11:31:46;49.26;48.16;50.25;;
17594;Laerm;8916;47.086;15.920;2023-01-25T11:34:18;49.26;48.00;50.47;;
17594;Laerm;8916;47.086;15.920;2023-01-25T11:37:10;49.26;48.23;50.26;;
17594;Laerm;8916;47.086;15.920;2023-01-25T11:39:57;49.25;47.88;50.36;;
17594;Laerm;8916;47.086;15.920;2023-01-25T11:42:36;49.25;48.12;50.44;;
17594;Laerm;8916;47.086;15.920;2023-01-25T11:45:45;49.25;48.15;50.56;;
17594;Laerm;8916;47.086;15.920;2023-01-25T11:48:35;49.25;47.88;50.68;;
17594;Laerm;8916;47.086;15.920;2023-01-25T11:51:21;49.26;48.10;50.36;;
17594;Laerm;8916;47.086;15.920;2023-01-25T11:54:04;49.25;47.90;50.47;;
17594;Laerm;8916;47.086;15.920;2023-01-25T11:56:49;49.25;47.88;50.47;;
17594;Laerm;8916;47.086;15.920;2023-01-25T11:59:50;49.26;48.10;50.49;;
17594;Laerm;8916;47.086;15.920;2023-01-25T12:02:51;49.25;48.13;50.37;;
17594;Laerm;8916;47.086;15.920;2023-01-25T12:05:42;49.26;48.15;50.60;;
17594;Laerm;8916;47.086;15.920;2023-01-25T12:08:37;49.25;48.23;50.46;;
17594;Laerm;8916;47.086;15.920;2023-01-25T12:11:18;49.25;48.21;50.33;;
17594;Laerm;8916;47.086;15.920;2023-01-25T12:14:04;49.26;48.07;50.32;;
17594;Laerm;8916;47.086;15.920;2023-01-25T12:16:53;49.26;48.21;50.37;;
17594;Laerm;8916;47.086;15.920;2023-01-25T12:22:53;49.27;48.20;50.25;;
17594;Laerm;8916;47.086;15.920;2023-01-25T12:25:31;49.26;48.28;50.55;;
17594;Laerm;8916;47.086;15.920;2023-01-25T12:28:11;49.28;48.23;50.33;;
17594;Laerm;8916;47.086;15.920;2023-01-25T12:30:51;49.26;48.12;50.46;;
17594;Laerm;8916;47.086;15.920;2023-01-25T12:33:27;49.26;48.02;50.33;;
17594;Laerm;8916;47.086;15.920;2023-01-25T12:36:01;49.26;48.13;50.52;;
17594;Laerm;8916;47.086;15.920;2023-01-25T12:38:38;49.27;47.98;50.49;;
17594;Laerm;8916;47.086;15.920;2023-01-25T12:41:23;49.27;48.16;50.42;;
17594;Laerm;8916;47.086;15.920;2023-01-25T12:43:57;49.27;47.98;50.34;;
17594;Laerm;8916;47.086;15.920;2023-01-25T12:46:34;49.26;48.21;50.46;;
17594;Laerm;8916;47.086;15.920;2023-01-25T12:49:24;49.27;48.16;50.62;;
17594;Laerm;8916;47.086;15.920;2023-01-25T12:51:57;49.27;48.08;50.35;;
17594;Laerm;8916;47.086;15.920;2023-01-25T12:54:32;49.27;48.02;50.36;;
17594;Laerm;8916;47.086;15.920;2023-01-25T12:57:15;49.27;48.23;50.37;;
17594;Laerm;8916;47.086;15.920;2023-01-25T12:59:56;49.27;48.13;50.33;;
17594;Laerm;8916;47.086;15.920;2023-01-25T13:02:49;49.26;48.26;50.45;;
17594;Laerm;8916;47.086;15.920;2023-01-25T13:05:28;49.27;48.20;50.30;;
17594;Laerm;8916;47.086;15.920;2023-01-25T13:08:16;49.27;48.05;50.45;;
17594;Laerm;8916;47.086;15.920;2023-01-25T13:11:09;49.27;48.03;50.41;;
17594;Laerm;8916;47.086;15.920;2023-01-25T13:13:40;49.26;48.18;50.58;;
17594;Laerm;8916;47.086;15.920;2023-01-25T13:16:39;49.27;48.26;50.46;;
17594;Laerm;8916;47.086;15.920;2023-01-25T13:19:21;49.27;47.84;50.43;;
17594;Laerm;8916;47.086;15.920;2023-01-25T13:22:08;49.27;48.19;50.33;;
17594;Laerm;8916;47.086;15.920;2023-01-25T13:25:07;49.27;48.21;50.73;;
17594;Laerm;8916;47.086;15.920;2023-01-25T13:27:38;49.27;48.08;50.40;;
17594;Laerm;8916;47.086;15.920;2023-01-25T13:30:32;49.28;47.95;50.43;;
17594;Laerm;8916;47.086;15.920;2023-01-25T13:33:03;49.27;48.12;50.32;;
17594;Laerm;8916;47.086;15.920;2023-01-25T13:35:42;49.27;48.12;50.27;;
17594;Laerm;8916;47.086;15.920;2023-01-25T13:38:29;49.27;48.25;50.38;;
17594;Laerm;8916;47.086;15.920;2023-01-25T13:41:16;49.28;48.12;50.39;;
17594;Laerm;8916;47.086;15.920;2023-01-25T13:43:52;49.28;48.31;50.44;;
17594;Laerm;8916;47.086;15.920;2023-01-25T13:46:23;49.27;48.25;50.51;;
17594;Laerm;8916;47.086;15.920;2023-01-25T13:49:02;49.28;48.15;50.39;;
17594;Laerm;8916;47.086;15.920;2023-01-25T13:51:37;49.28;48.20;50.70;;
17594;Laerm;8916;47.086;15.920;2023-01-25T13:54:15;49.28;48.16;50.42;;
17594;Laerm;8916;47.086;15.920;2023-01-25T13:56:44;49.28;48.21;50.32;;
17594;Laerm;8916;47.086;15.920;2023-01-25T13:59:25;49.28;48.18;50.28;;
17594;Laerm;8916;47.086;15.920;2023-01-25T14:01:56;49.27;48.15;50.27;;
17594;Laerm;8916;47.086;15.920;2023-01-25T14:04:27;49.27;48.03;50.51;;
17594;Laerm;8916;47.086;15.920;2023-01-25T14:06:59;49.29;48.25;50.41;;
17594;Laerm;8916;47.086;15.920;2023-01-25T14:09:36;49.28;48.28;50.32;;
17594;Laerm;8916;47.086;15.920;2023-01-25T14:12:18;49.27;47.86;50.49;;
17594;Laerm;8916;47.086;15.920;2023-01-25T14:14:51;49.28;48.16;50.33;;
17594;Laerm;8916;47.086;15.920;2023-01-25T14:17:22;49.27;48.15;50.33;;
17594;Laerm;8916;47.086;15.920;2023-01-25T14:19:53;49.29;48.31;50.44;;
17594;Laerm;8916;47.086;15.920;2023-01-25T14:22:26;49.28;48.23;50.55;;
17594;Laerm;8916;47.086;15.920;2023-01-25T14:25:08;49.28;47.81;50.47;;
17594;Laerm;8916;47.086;15.920;2023-01-25T14:27:45;49.28;48.13;50.38;;
17594;Laerm;8916;47.086;15.920;2023-01-25T14:30:20;49.28;48.12;50.48;;